createdAt,value
2019-03-05T00:00:37.790Z,73.79
2019-03-05T00:03:06.183Z,73.79
2019-03-05T00:05:34.566Z,73.86
2019-03-05T00:08:02.955Z,74.33
2019-03-05T00:10:31.343Z,73.73
2019-03-05T00:12:59.738Z,74.01
2019-03-05T00:15:29.267Z,73.75
2019-03-05T00:17:57.716Z,74.35
2019-03-05T00:20:26.491Z,74.21
2019-03-05T00:22:54.871Z,74.25
2019-03-05T00:25:25.605Z,73.88
2019-03-05T00:27:59.813Z,74.46
2019-03-05T00:30:55.564Z,73.99
2019-03-05T00:33:27.012Z,74.19
2019-03-05T00:36:13.287Z,76.12
2019-03-05T00:39:01.563Z,76.81
2019-03-05T00:41:36.157Z,76.87
2019-03-05T00:44:07.642Z,76.77
2019-03-05T00:46:50.844Z,76.64
2019-03-05T00:49:25.639Z,77.17
2019-03-05T00:52:03.174Z,77.32
2019-03-05T00:54:40.598Z,77.00
2019-03-05T00:57:15.075Z,78.08
2019-03-05T00:59:46.524Z,77.59
2019-03-05T01:02:20.794Z,77.29
2019-03-05T01:04:52.623Z,77.65
2019-03-05T01:07:21.488Z,78.01
2019-03-05T01:09:50.307Z,77.57
2019-03-05T01:12:20.242Z,78.00
2019-03-05T01:14:48.631Z,77.88
2019-03-05T01:17:17.356Z,77.62
2019-03-05T01:19:45.736Z,77.44
2019-03-05T01:22:14.112Z,77.69
2019-03-05T01:24:42.513Z,77.64
2019-03-05T01:27:10.960Z,77.62
2019-03-05T01:29:39.363Z,77.12
2019-03-05T01:32:21.352Z,77.20
2019-03-05T01:34:51.395Z,77.02
2019-03-05T01:37:19.767Z,76.85
2019-03-05T01:39:49.793Z,76.95
2019-03-05T01:42:18.175Z,76.91
2019-03-05T01:44:46.570Z,76.29
2019-03-05T01:47:14.963Z,76.93
2019-03-05T01:49:43.350Z,76.40
2019-03-05T01:52:11.743Z,75.96
2019-03-05T01:54:40.132Z,75.96
2019-03-05T01:57:08.522Z,76.27
2019-03-05T01:59:36.951Z,76.51
2019-03-05T02:02:05.817Z,75.67
2019-03-05T02:04:34.207Z,75.44
2019-03-05T02:07:02.685Z,75.53
2019-03-05T02:09:31.075Z,75.21
2019-03-05T02:11:59.470Z,76.01
2019-03-05T02:14:27.854Z,75.41
2019-03-05T02:16:56.243Z,75.67
2019-03-05T02:19:45.271Z,75.30
2019-03-05T02:22:33.999Z,75.40
2019-03-05T02:25:11.461Z,74.92
2019-03-05T02:27:59.365Z,74.79
2019-03-05T02:31:01.282Z,74.64
2019-03-05T02:34:07.627Z,75.08
2019-03-05T02:36:58.042Z,74.69
2019-03-05T02:40:01.529Z,74.90
2019-03-05T02:42:41.810Z,74.60
2019-03-05T02:45:31.879Z,74.45
2019-03-05T02:48:22.438Z,74.47
2019-03-05T02:51:15.104Z,74.51
2019-03-05T02:54:13.683Z,75.07
2019-03-05T02:56:47.829Z,74.29
2019-03-05T02:59:15.071Z,74.43
2019-03-05T03:01:50.816Z,74.58
2019-03-05T03:04:23.807Z,74.46
2019-03-05T03:06:52.199Z,74.80
2019-03-05T03:09:32.543Z,73.94
2019-03-05T03:12:00.946Z,74.18
2019-03-05T03:14:29.367Z,73.72
2019-03-05T03:16:57.712Z,74.15
2019-03-05T03:19:26.170Z,73.54
2019-03-05T03:21:54.571Z,74.05
2019-03-05T03:24:22.959Z,73.92
2019-03-05T03:26:51.361Z,73.12
2019-03-05T03:29:19.741Z,73.01
2019-03-05T03:31:48.140Z,73.66
2019-03-05T03:34:16.837Z,73.89
2019-03-05T03:36:45.217Z,74.07
2019-03-05T03:39:13.679Z,73.14
2019-03-05T03:41:42.082Z,72.60
2019-03-05T03:44:10.476Z,72.77
2019-03-05T03:46:38.870Z,73.27
2019-03-05T03:49:07.265Z,72.92
2019-03-05T03:51:35.652Z,73.93
2019-03-05T03:54:04.125Z,73.86
2019-03-05T03:56:32.510Z,74.08
2019-03-05T03:59:00.917Z,74.11
2019-03-05T04:01:29.380Z,73.92
2019-03-05T04:03:57.768Z,73.42
2019-03-05T04:06:26.225Z,73.76
2019-03-05T04:08:54.613Z,73.96
2019-03-05T04:11:23.025Z,73.63
2019-03-05T04:13:51.676Z,73.81
2019-03-05T04:16:20.076Z,74.05
2019-03-05T04:18:48.461Z,74.25
2019-03-05T04:21:19.853Z,74.69
2019-03-05T04:23:46.991Z,74.53
2019-03-05T04:26:15.382Z,73.71
2019-03-05T04:28:43.850Z,73.45
2019-03-05T04:31:12.236Z,73.86
2019-03-05T04:33:40.633Z,74.04
2019-03-05T04:36:09.019Z,74.31
2019-03-05T04:38:37.408Z,74.24
2019-03-05T04:41:05.798Z,74.22
2019-03-05T04:43:34.193Z,74.09
2019-03-05T04:46:04.220Z,74.41
2019-03-05T04:48:32.989Z,74.66
2019-03-05T04:51:03.329Z,74.15
2019-03-05T04:53:31.982Z,74.63
2019-03-05T04:56:00.624Z,74.23
2019-03-05T04:58:29.003Z,74.20
2019-03-05T05:00:57.428Z,74.39
2019-03-05T05:03:25.814Z,74.44
2019-03-05T05:05:54.215Z,74.91
2019-03-05T05:08:22.609Z,75.16
2019-03-05T05:10:50.996Z,75.07
2019-03-05T05:13:19.393Z,75.13
2019-03-05T05:15:47.779Z,75.25
2019-03-05T05:18:16.168Z,75.78
2019-03-05T05:20:44.629Z,76.11
2019-03-05T05:23:13.012Z,76.22
2019-03-05T05:25:41.411Z,76.08
2019-03-05T05:28:09.795Z,77.19
2019-03-05T05:30:40.138Z,77.16
2019-03-05T05:33:09.366Z,77.32
2019-03-05T05:35:37.831Z,77.70
2019-03-05T05:38:13.627Z,77.49
2019-03-05T05:40:44.246Z,77.77
2019-03-05T05:43:15.335Z,77.99
2019-03-05T05:45:45.641Z,78.26
2019-03-05T05:48:14.031Z,78.48
2019-03-05T05:50:42.443Z,77.66
2019-03-05T05:53:10.844Z,78.62
2019-03-05T05:55:39.399Z,78.47
2019-03-05T05:58:07.871Z,77.88
2019-03-05T06:00:38.262Z,78.23
2019-03-05T06:03:06.669Z,78.03
2019-03-05T06:05:35.058Z,77.65
2019-03-05T06:08:03.482Z,77.96
2019-03-05T06:10:31.880Z,77.39
2019-03-05T06:13:00.275Z,77.51
2019-03-05T06:15:29.055Z,77.37
2019-03-05T06:17:57.457Z,77.30
2019-03-05T06:20:25.848Z,77.37
2019-03-05T06:22:54.257Z,76.71
2019-03-05T06:25:22.719Z,77.33
2019-03-05T06:27:51.121Z,76.99
2019-03-05T06:30:24.645Z,76.21
2019-03-05T06:32:53.034Z,76.51
2019-03-05T06:35:21.422Z,76.96
2019-03-05T06:37:49.813Z,76.59
2019-03-05T06:40:21.136Z,76.58
2019-03-05T06:42:49.798Z,77.72
2019-03-05T06:45:19.527Z,78.37
2019-03-05T06:47:47.993Z,80.32
2019-03-05T06:50:26.895Z,80.68
2019-03-05T06:52:55.294Z,81.32
2019-03-05T06:55:23.676Z,81.37
2019-03-05T06:57:52.059Z,81.57
2019-03-05T07:00:37.248Z,81.33
2019-03-05T07:03:07.268Z,82.21
2019-03-05T07:06:12.371Z,82.92
2019-03-05T07:08:53.143Z,82.46
2019-03-05T07:11:39.781Z,83.01
2019-03-05T07:14:23.079Z,83.26
2019-03-05T07:17:06.817Z,83.60
2019-03-05T07:19:41.231Z,83.45
2019-03-05T07:22:18.695Z,83.33
2019-03-05T07:24:48.697Z,83.94
2019-03-05T07:27:19.831Z,83.66
2019-03-05T07:29:48.227Z,83.24
2019-03-05T07:32:16.614Z,83.98
2019-03-05T07:34:47.349Z,83.80
2019-03-05T07:37:15.873Z,84.27
2019-03-05T07:39:44.266Z,83.26
2019-03-05T07:42:12.667Z,84.44
2019-03-05T07:44:41.045Z,83.63
2019-03-05T07:47:09.460Z,83.28
2019-03-05T07:49:43.639Z,83.43
2019-03-05T07:52:08.035Z,84.29
2019-03-05T07:54:36.433Z,84.41
2019-03-05T07:57:04.885Z,84.32
2019-03-05T07:59:34.076Z,84.00
2019-03-05T08:02:02.493Z,83.76
2019-03-05T08:04:30.860Z,84.19
2019-03-05T08:06:59.330Z,84.09
2019-03-05T08:09:35.805Z,84.18
2019-03-05T08:12:15.928Z,83.59
2019-03-05T08:14:59.816Z,83.84
2019-03-05T08:17:28.219Z,83.85
2019-03-05T08:19:56.600Z,83.79
2019-03-05T08:22:25.047Z,84.17
2019-03-05T08:24:53.452Z,86.05
2019-03-05T08:27:21.833Z,85.98
2019-03-05T08:29:50.314Z,84.30
2019-03-05T08:32:18.708Z,85.22
2019-03-05T08:34:47.076Z,85.68
2019-03-05T08:37:15.464Z,88.24
2019-03-05T08:39:43.851Z,89.02
2019-03-05T08:42:12.348Z,88.59
2019-03-05T08:44:49.989Z,90.19
2019-03-05T08:47:11.262Z,90.72
2019-03-05T08:49:39.659Z,90.59
2019-03-05T08:52:08.037Z,91.29
2019-03-05T08:54:36.505Z,91.39
2019-03-05T08:57:04.964Z,92.17
2019-03-05T08:59:33.347Z,92.12
2019-03-05T09:02:01.738Z,92.64
2019-03-05T09:04:30.124Z,92.94
2019-03-05T09:06:58.576Z,93.61
2019-03-05T09:09:26.965Z,93.56
2019-03-05T09:11:55.485Z,92.64
2019-03-05T09:14:23.872Z,93.16
2019-03-05T09:16:52.257Z,92.24
2019-03-05T09:19:21.176Z,92.33
2019-03-05T09:21:49.573Z,90.54
2019-03-05T09:24:17.950Z,92.14
2019-03-05T09:26:51.328Z,92.68
2019-03-05T09:29:16.520Z,92.14
2019-03-05T09:31:44.936Z,90.33
2019-03-05T09:34:13.324Z,91.17
2019-03-05T09:36:50.522Z,90.47
2019-03-05T09:39:12.473Z,92.05
2019-03-05T09:41:40.929Z,91.74
2019-03-05T09:44:09.336Z,91.85
2019-03-05T09:46:37.736Z,92.75
2019-03-05T09:49:06.120Z,92.91
2019-03-05T09:51:34.887Z,92.49
2019-03-05T09:54:03.751Z,92.65
2019-03-05T09:56:32.167Z,92.71
2019-03-05T09:59:00.555Z,92.56
2019-03-05T10:01:29.023Z,92.85
2019-03-05T10:03:57.407Z,93.67
2019-03-05T10:06:25.788Z,93.80
2019-03-05T10:08:54.201Z,91.44
2019-03-05T10:11:22.860Z,93.06
2019-03-05T10:13:51.603Z,91.62
2019-03-05T10:16:20.282Z,92.79
2019-03-05T10:18:48.667Z,92.11
2019-03-05T10:21:17.141Z,92.85
2019-03-05T10:23:46.469Z,92.71
2019-03-05T10:26:14.914Z,91.87
2019-03-05T10:28:43.607Z,92.70
2019-03-05T10:31:12.236Z,92.74
2019-03-05T10:33:40.722Z,92.98
2019-03-05T10:36:09.103Z,93.14
2019-03-05T10:38:37.479Z,93.50
2019-03-05T10:41:06.316Z,92.59
2019-03-05T10:43:35.064Z,92.43
2019-03-05T10:46:03.499Z,93.37
2019-03-05T10:48:31.910Z,92.36
2019-03-05T10:51:00.444Z,90.53
2019-03-05T10:53:29.197Z,91.41
2019-03-05T10:55:57.604Z,91.57
2019-03-05T10:58:33.749Z,93.65
2019-03-05T11:00:56.844Z,92.36
2019-03-05T11:03:29.336Z,93.63
2019-03-05T11:05:57.719Z,93.85
2019-03-05T11:08:27.441Z,92.04
2019-03-05T11:10:56.561Z,91.02
2019-03-05T11:13:25.094Z,87.99
2019-03-05T11:15:56.481Z,91.78
2019-03-05T11:18:29.395Z,92.02
2019-03-05T11:20:55.227Z,91.00
2019-03-05T11:23:23.746Z,91.77
2019-03-05T11:25:52.201Z,92.55
2019-03-05T11:28:20.595Z,92.07
2019-03-05T11:30:49.129Z,92.29
2019-03-05T11:33:17.666Z,93.12
2019-03-05T11:35:46.059Z,91.88
2019-03-05T11:38:14.448Z,90.77
2019-03-05T11:40:42.907Z,93.05
2019-03-05T11:43:13.304Z,93.53
2019-03-05T11:45:42.958Z,93.80
2019-03-05T11:48:11.480Z,93.83
2019-03-05T11:50:39.897Z,91.21
2019-03-05T11:53:08.267Z,89.37
2019-03-05T11:55:36.663Z,91.24
2019-03-05T11:58:05.216Z,91.21
2019-03-05T12:00:52.776Z,89.92
2019-03-05T12:03:21.451Z,90.04
2019-03-05T12:05:49.902Z,88.98
2019-03-05T12:08:18.581Z,91.77
2019-03-05T12:10:47.259Z,92.62
2019-03-05T12:13:15.788Z,88.78
2019-03-05T12:15:45.543Z,89.92
2019-03-05T12:18:13.984Z,87.85
2019-03-05T12:20:42.438Z,90.28
2019-03-05T12:23:11.921Z,90.94
2019-03-05T12:25:41.193Z,89.93
2019-03-05T12:28:10.985Z,89.41
2019-03-05T12:30:40.059Z,88.39
2019-03-05T12:33:08.513Z,91.12
2019-03-05T12:35:36.972Z,91.74
2019-03-05T12:38:05.889Z,88.09
2019-03-05T12:40:34.478Z,89.02
2019-03-05T12:43:03.199Z,88.78
2019-03-05T12:45:31.582Z,86.25
2019-03-05T12:47:59.980Z,89.72
2019-03-05T12:50:34.171Z,92.05
2019-03-05T12:53:03.414Z,88.74
2019-03-05T12:55:31.802Z,90.50
2019-03-05T12:58:00.190Z,90.93
2019-03-05T13:00:33.205Z,90.04
2019-03-05T13:03:02.432Z,91.85
2019-03-05T13:05:31.254Z,90.33
2019-03-05T13:07:59.636Z,88.00
2019-03-05T13:10:37.317Z,87.98
2019-03-05T13:13:05.335Z,91.50
2019-03-05T13:15:38.579Z,90.70
2019-03-05T13:18:07.075Z,87.24
2019-03-05T13:20:35.475Z,85.73
2019-03-05T13:23:08.726Z,83.63
2019-03-05T13:25:34.064Z,85.30
2019-03-05T13:28:04.155Z,84.27
2019-03-05T13:30:33.201Z,86.51
2019-03-05T13:33:01.649Z,85.36
2019-03-05T13:35:31.785Z,87.44
2019-03-05T13:38:07.472Z,87.25
2019-03-05T13:40:34.245Z,86.09
2019-03-05T13:43:04.696Z,86.52
2019-03-05T13:45:33.090Z,86.94
2019-03-05T13:48:04.511Z,87.10
2019-03-05T13:51:00.049Z,84.70
2019-03-05T13:53:48.252Z,87.65
2019-03-05T13:56:31.808Z,86.42
2019-03-05T13:59:09.574Z,86.69
2019-03-05T14:01:37.974Z,81.48
2019-03-05T14:04:09.738Z,86.65
2019-03-05T14:06:57.978Z,89.84
2019-03-05T14:09:25.203Z,86.65
2019-03-05T14:11:53.608Z,84.76
2019-03-05T14:14:26.351Z,88.63
2019-03-05T14:16:56.740Z,88.07
2019-03-05T14:19:25.189Z,87.02
2019-03-05T14:21:53.608Z,88.08
2019-03-05T14:24:22.111Z,84.41
2019-03-05T14:26:50.840Z,86.59
2019-03-05T14:29:19.231Z,85.90
2019-03-05T14:31:47.891Z,85.44
2019-03-05T14:34:16.414Z,84.43
2019-03-05T14:36:44.761Z,82.33
2019-03-05T14:39:25.250Z,75.66
2019-03-05T14:41:53.825Z,71.59
2019-03-05T14:44:22.696Z,68.30
2019-03-05T14:46:56.313Z,67.51
2019-03-05T14:49:24.916Z,65.87
2019-03-05T14:51:53.390Z,66.55
2019-03-05T14:54:21.874Z,69.00
2019-03-05T14:56:50.623Z,67.67
2019-03-05T14:59:19.350Z,66.62
2019-03-05T15:01:47.859Z,65.73
2019-03-05T15:04:16.258Z,67.64
2019-03-05T15:06:44.665Z,66.10
2019-03-05T15:09:13.228Z,66.63
2019-03-05T15:11:42.674Z,66.60
2019-03-05T15:14:11.083Z,66.54
2019-03-05T15:16:39.792Z,64.98
2019-03-05T15:19:20.632Z,67.78
2019-03-05T15:21:38.292Z,66.22
2019-03-05T15:24:06.774Z,66.94
2019-03-05T15:26:35.147Z,65.31
2019-03-05T15:29:03.552Z,67.40
2019-03-05T15:31:31.945Z,67.16
2019-03-05T15:34:00.332Z,65.97
2019-03-05T15:36:28.764Z,67.49
2019-03-05T15:38:58.739Z,65.46
2019-03-05T15:41:27.878Z,66.60
2019-03-05T15:43:56.375Z,66.55
2019-03-05T15:46:24.775Z,67.15
2019-03-05T15:48:53.592Z,67.41
2019-03-05T15:51:21.957Z,65.83
2019-03-05T15:53:50.698Z,67.82
2019-03-05T15:56:19.086Z,66.72
2019-03-05T15:58:48.982Z,67.83
2019-03-05T16:01:22.208Z,67.50
2019-03-05T16:03:47.572Z,68.38
2019-03-05T16:06:15.967Z,66.38
2019-03-05T16:08:44.351Z,65.90
2019-03-05T16:11:12.740Z,66.00
2019-03-05T16:13:41.166Z,67.12
2019-03-05T16:16:09.558Z,66.78
2019-03-05T16:18:39.021Z,65.65
2019-03-05T16:21:07.831Z,67.00
2019-03-05T16:23:36.216Z,66.30
2019-03-05T16:26:04.662Z,66.30
2019-03-05T16:28:33.391Z,67.65
2019-03-05T16:31:21.806Z,67.28
2019-03-05T16:34:13.137Z,67.12
2019-03-05T16:36:54.031Z,68.03
2019-03-05T16:39:31.619Z,67.80
2019-03-05T16:41:59.009Z,69.29
2019-03-05T16:44:29.041Z,69.45
2019-03-05T16:46:59.071Z,68.58
2019-03-05T16:49:45.922Z,69.49
2019-03-05T16:52:31.201Z,68.74
2019-03-05T16:55:10.010Z,69.29
2019-03-05T16:57:42.760Z,68.49
2019-03-05T17:00:34.877Z,68.85
2019-03-05T17:03:05.080Z,69.25
2019-03-05T17:05:51.569Z,70.11
2019-03-05T17:08:33.620Z,68.70
2019-03-05T17:11:10.036Z,69.61
2019-03-05T17:13:38.414Z,68.85
2019-03-05T17:16:06.811Z,69.67
2019-03-05T17:18:35.207Z,70.18
2019-03-05T17:21:03.776Z,69.70
2019-03-05T17:23:32.531Z,70.55
2019-03-05T17:26:00.912Z,70.54
2019-03-05T17:28:29.308Z,71.28
2019-03-05T17:30:57.698Z,71.56
2019-03-05T17:33:26.084Z,71.53
2019-03-05T17:35:54.835Z,71.02
2019-03-05T17:38:23.281Z,71.27
2019-03-05T17:40:51.671Z,71.25
2019-03-05T17:43:20.067Z,71.45
2019-03-05T17:45:48.450Z,71.49
2019-03-05T17:48:16.870Z,70.92
2019-03-05T17:50:45.252Z,70.96
2019-03-05T17:53:13.638Z,72.15
2019-03-05T17:55:42.097Z,70.35
2019-03-05T17:58:10.481Z,71.08
2019-03-05T18:00:40.870Z,70.36
2019-03-05T18:03:09.245Z,70.71
2019-03-05T18:05:37.647Z,70.54
2019-03-05T18:08:06.322Z,70.54
2019-03-05T18:10:34.703Z,72.09
2019-03-05T18:13:03.508Z,71.15
2019-03-05T18:15:31.898Z,70.65
2019-03-05T18:18:00.289Z,71.04
2019-03-05T18:20:28.682Z,71.38
2019-03-05T18:22:57.067Z,71.98
2019-03-05T18:25:25.493Z,71.39
2019-03-05T18:27:53.881Z,71.93
2019-03-05T18:30:24.013Z,71.56
2019-03-05T18:32:52.405Z,71.26
2019-03-05T18:35:21.223Z,70.90
2019-03-05T18:37:50.260Z,71.40
2019-03-05T18:40:20.853Z,71.72
2019-03-05T18:42:49.397Z,71.22
2019-03-05T18:45:32.681Z,71.81
2019-03-05T18:48:01.072Z,71.56
2019-03-05T18:50:29.704Z,71.82
2019-03-05T18:52:59.529Z,71.07
2019-03-05T18:55:28.363Z,70.89
2019-03-05T18:57:56.824Z,70.84
2019-03-05T19:00:33.986Z,72.01
2019-03-05T19:03:09.065Z,71.77
2019-03-05T19:05:37.736Z,73.15
2019-03-05T19:08:06.195Z,72.36
2019-03-05T19:10:34.607Z,72.54
2019-03-05T19:13:02.991Z,73.31
2019-03-05T19:15:31.456Z,73.18
2019-03-05T19:18:00.113Z,72.69
2019-03-05T19:20:32.339Z,72.29
2019-03-05T19:23:00.797Z,71.68
2019-03-05T19:25:33.976Z,72.12
2019-03-05T19:28:02.349Z,72.87
2019-03-05T19:30:35.249Z,73.38
2019-03-05T19:33:03.737Z,73.55
2019-03-05T19:35:32.200Z,73.68
2019-03-05T19:38:00.658Z,73.98
2019-03-05T19:40:40.139Z,73.37
2019-03-05T19:43:08.761Z,73.29
2019-03-05T19:45:37.136Z,73.63
2019-03-05T19:48:06.078Z,73.16
2019-03-05T19:50:34.543Z,73.28
2019-03-05T19:53:02.927Z,73.64
2019-03-05T19:55:31.789Z,73.93
2019-03-05T19:58:10.339Z,73.70
2019-03-05T20:01:00.262Z,73.96
2019-03-05T20:03:28.650Z,74.44
2019-03-05T20:05:57.033Z,74.90
2019-03-05T20:08:25.488Z,74.91
2019-03-05T20:10:54.046Z,75.20
2019-03-05T20:13:22.447Z,75.58
2019-03-05T20:15:51.215Z,75.69
2019-03-05T20:18:19.591Z,76.10
2019-03-05T20:20:47.975Z,75.76
2019-03-05T20:23:16.391Z,75.21
2019-03-05T20:25:44.948Z,75.40
2019-03-05T20:28:13.330Z,75.20
2019-03-05T20:30:42.515Z,75.57
2019-03-05T20:33:11.130Z,76.42
2019-03-05T20:35:39.518Z,75.31
2019-03-05T20:38:07.964Z,75.24
2019-03-05T20:40:36.355Z,75.23
2019-03-05T20:43:05.294Z,75.21
2019-03-05T20:45:51.998Z,75.23
2019-03-05T20:48:20.454Z,75.29
2019-03-05T20:50:51.003Z,75.56
2019-03-05T20:53:19.424Z,76.24
2019-03-05T20:55:47.810Z,76.11
2019-03-05T20:58:16.202Z,75.61
2019-03-05T21:00:44.807Z,75.45
2019-03-05T21:03:13.919Z,75.27
2019-03-05T21:05:43.749Z,75.49
2019-03-05T21:08:13.337Z,75.98
2019-03-05T21:10:41.724Z,75.74
2019-03-05T21:13:10.383Z,76.24
2019-03-05T21:15:38.801Z,76.65
2019-03-05T21:18:15.131Z,77.06
2019-03-05T21:20:43.514Z,77.01
2019-03-05T21:23:12.401Z,77.20
2019-03-05T21:25:40.791Z,77.55
2019-03-05T21:28:09.179Z,77.81
2019-03-05T21:30:37.673Z,78.06
2019-03-05T21:33:06.133Z,78.40
2019-03-05T21:35:34.524Z,78.16
2019-03-05T21:38:03.007Z,78.30
2019-03-05T21:40:32.543Z,78.20
2019-03-05T21:43:00.921Z,78.44
2019-03-05T21:45:38.338Z,79.07
2019-03-05T21:48:07.069Z,78.79
2019-03-05T21:50:35.456Z,78.74
2019-03-05T21:53:05.308Z,79.07
2019-03-05T21:55:34.636Z,78.66
2019-03-05T21:58:03.188Z,79.04
2019-03-05T22:00:36.768Z,79.47
2019-03-05T22:03:05.795Z,79.34
2019-03-05T22:05:34.181Z,79.48
2019-03-05T22:08:03.120Z,79.41
2019-03-05T22:10:31.519Z,79.71
2019-03-05T22:12:59.910Z,80.12
2019-03-05T22:15:33.123Z,80.31
2019-03-05T22:18:01.500Z,80.15
2019-03-05T22:20:29.896Z,80.62
2019-03-05T22:22:58.481Z,80.52
2019-03-05T22:25:29.083Z,80.70
2019-03-05T22:27:57.746Z,80.81
2019-03-05T22:30:31.522Z,80.98
2019-03-05T22:32:59.908Z,81.33
2019-03-05T22:35:28.306Z,81.22
2019-03-05T22:37:57.066Z,81.19
2019-03-05T22:40:26.506Z,81.30
2019-03-05T22:42:55.030Z,81.49
2019-03-05T22:45:25.765Z,81.66
2019-03-05T22:47:54.437Z,81.66
2019-03-05T22:50:22.833Z,81.64
2019-03-05T22:52:51.981Z,81.68
2019-03-05T22:55:20.591Z,82.11
2019-03-05T22:57:48.985Z,81.25
2019-03-05T23:00:37.033Z,81.26
2019-03-05T23:03:08.163Z,80.71
2019-03-05T23:05:36.839Z,80.33
2019-03-05T23:08:05.667Z,80.31
2019-03-05T23:10:34.536Z,79.50
2019-03-05T23:13:02.995Z,80.02
2019-03-05T23:15:31.975Z,80.06
2019-03-05T23:18:00.366Z,80.02
2019-03-05T23:20:29.085Z,79.64
2019-03-05T23:22:57.463Z,79.89
2019-03-05T23:25:26.022Z,80.48
2019-03-05T23:27:54.497Z,80.59
2019-03-05T23:30:23.261Z,80.83
2019-03-05T23:32:54.055Z,80.62
2019-03-05T23:35:22.686Z,80.68
2019-03-05T23:37:51.139Z,81.11
2019-03-05T23:40:20.092Z,81.67
2019-03-05T23:42:48.644Z,81.83
2019-03-05T23:45:18.460Z,81.88
2019-03-05T23:47:46.871Z,81.87
2019-03-05T23:50:18.912Z,81.72
2019-03-05T23:52:47.372Z,81.69
2019-03-05T23:55:17.527Z,81.49
2019-03-05T23:57:46.169Z,81.65
